Time;durP1;ratioP1;P1;durP2;ratioP2;P2;SDS_P1;SDS_P2;PMS_P1;PMS_P2;Temp;Humidity;BMP_temperature;BMP_pressure;BME280_temperature;BME280_humidity;BME280_pressure;Samples;Min_cycle;Max_cycle;Signal;HPM_P1;HPM_P2
2023/03/10 00:00:07;;;;;;;;;2.67;2.00;;;;;15.30;100.00;98839.44;4982152;28;45407;-76
2023/03/10 00:02:33;;;;;;;;;3.33;2.00;;;;;15.13;100.00;98813.69;5013845;28;47199;-79
2023/03/10 00:04:59;;;;;;;;;4.00;3.33;;;;;15.30;100.00;98830.38;4981491;28;45311;-78
2023/03/10 00:07:25;;;;;;;;;4.67;4.67;;;;;15.14;100.00;98834.53;4995242;28;45400;-79
2023/03/10 00:09:51;;;;;;;;;7.67;4.00;;;;;15.23;100.00;98824.97;4982525;28;45443;-79
2023/03/10 00:12:16;;;;;;;;;5.67;5.67;;;;;15.35;100.00;98825.06;4981905;28;46170;-79
2023/03/10 00:14:41;;;;;;;;;6.00;2.67;;;;;15.47;100.00;98832.31;4982068;28;45404;-79
2023/03/10 00:17:07;;;;;;;;;8.33;2.67;;;;;15.36;100.00;98819.38;4995173;28;45748;-79
2023/03/10 00:19:32;;;;;;;;;6.33;3.00;;;;;15.45;100.00;98819.91;4983904;28;45674;-79
2023/03/10 00:21:57;;;;;;;;;8.67;5.00;;;;;15.44;100.00;98812.75;5011634;28;46839;-80
2023/03/10 00:24:23;;;;;;;;;8.00;6.67;;;;;15.41;100.00;98810.50;5015792;28;46283;-78
2023/03/10 00:26:49;;;;;;;;;13.33;5.67;;;;;15.31;100.00;98782.81;4981692;28;45410;-79
2023/03/10 00:29:15;;;;;;;;;11.00;6.00;;;;;15.41;100.00;98797.66;4985271;28;45439;-78
2023/03/10 00:31:40;;;;;;;;;6.67;4.67;;;;;15.34;100.00;98776.91;5012407;28;46453;-79
2023/03/10 00:34:06;;;;;;;;;6.67;3.67;;;;;15.16;100.00;98792.22;5015793;28;45431;-78
2023/03/10 00:36:32;;;;;;;;;4.00;4.00;;;;;15.18;100.00;98778.31;4970575;28;45550;-78
2023/03/10 00:39:04;;;;;;;;;9.00;5.00;;;;;15.12;100.00;98769.09;5016306;28;45406;-78
2023/03/10 00:41:32;;;;;;;;;9.33;6.00;;;;;15.11;100.00;98767.44;4979418;28;45780;-79
2023/03/10 00:43:59;;;;;;;;;7.00;5.67;;;;;15.32;100.00;98763.44;4983505;28;45395;-79
2023/03/10 00:46:25;;;;;;;;;7.00;5.00;;;;;15.22;100.00;98757.63;4980026;28;45353;-78
2023/03/10 00:48:51;;;;;;;;;2.00;0.00;;;;;15.34;100.00;98755.81;4984556;28;45309;-80
2023/03/10 00:51:18;;;;;;;;;8.67;6.67;;;;;15.27;100.00;98768.72;4979442;28;45470;-78
2023/03/10 00:53:44;;;;;;;;;8.67;3.00;;;;;15.31;100.00;98756.28;4983654;28;45521;-78
2023/03/10 00:56:13;;;;;;;;;6.67;3.33;;;;;15.39;100.00;98774.31;4981190;28;45420;-79
2023/03/10 00:58:39;;;;;;;;;6.00;6.00;;;;;15.40;100.00;98768.63;4999362;28;45489;-79
2023/03/10 01:01:18;;;;;;;;;4.67;3.00;;;;;15.35;100.00;98767.59;4981693;28;46377;-78
2023/03/10 01:03:44;;;;;;;;;6.33;2.67;;;;;15.11;100.00;98750.19;4983552;28;45557;-79
2023/03/10 01:06:09;;;;;;;;;3.33;2.33;;;;;15.17;100.00;98771.16;4981639;28;45459;-78
2023/03/10 01:08:35;;;;;;;;;12.00;2.33;;;;;14.85;100.00;98747.69;4983354;28;45580;-79
2023/03/10 01:11:00;;;;;;;;;6.00;2.00;;;;;14.88;100.00;98755.47;4981026;28;45527;-78
2023/03/10 01:13:26;;;;;;;;;6.33;1.67;;;;;14.79;100.00;98763.13;4982756;28;45356;-78
2023/03/10 01:15:51;;;;;;;;;2.33;2.00;;;;;14.90;100.00;98767.03;4975731;28;45474;-79
2023/03/10 01:18:18;;;;;;;;;3.00;2.67;;;;;14.97;100.00;98759.59;4983098;28;45253;-78
2023/03/10 01:20:44;;;;;;;;;2.33;1.00;;;;;14.87;100.00;98751.91;4983710;28;45413;-79
2023/03/10 01:23:15;;;;;;;;;5.67;1.00;;;;;14.91;100.00;98755.00;4984401;28;45379;-78
2023/03/10 01:25:40;;;;;;;;;1.67;1.67;;;;;14.66;100.00;98735.91;4983711;28;45524;-77
2023/03/10 01:28:06;;;;;;;;;1.67;0.67;;;;;14.33;100.00;98736.94;4985317;28;45428;-79
2023/03/10 01:30:31;;;;;;;;;3.33;0.67;;;;;14.55;100.00;98747.53;4982757;28;47068;-79
2023/03/10 01:32:57;;;;;;;;;1.33;1.00;;;;;14.63;100.00;98741.78;4983335;28;45407;-80
2023/03/10 01:35:22;;;;;;;;;3.67;1.00;;;;;14.69;100.00;98744.47;4981701;28;45522;-80
2023/03/10 01:37:47;;;;;;;;;5.67;2.00;;;;;14.54;100.00;98743.97;4984938;28;45434;-78
2023/03/10 01:40:15;;;;;;;;;2.00;1.67;;;;;14.47;100.00;98743.19;4981617;28;46648;-79
2023/03/10 01:42:42;;;;;;;;;2.33;1.00;;;;;14.41;100.00;98744.06;4984601;28;45418;-79
2023/03/10 01:45:13;;;;;;;;;2.33;0.33;;;;;14.45;100.00;98745.31;4984110;28;45474;-79
2023/03/10 01:47:38;;;;;;;;;3.67;2.00;;;;;14.46;100.00;98741.53;4990371;28;45489;-79
2023/03/10 01:50:07;;;;;;;;;1.67;1.67;;;;;14.48;100.00;98723.00;5015297;28;47042;-79
2023/03/10 01:52:34;;;;;;;;;4.00;1.00;;;;;14.41;100.00;98733.16;5015974;28;45361;-80
2023/03/10 01:55:12;;;;;;;;;1.33;1.00;;;;;14.52;100.00;98748.84;4993227;28;45260;-80
2023/03/10 01:57:46;;;;;;;;;5.67;2.33;;;;;14.53;100.00;98715.00;4977273;28;45422;-78
2023/03/10 02:00:16;;;;;;;;;5.67;3.00;;;;;14.58;100.00;98723.34;4983409;28;45484;-80
2023/03/10 02:03:08;;;;;;;;;5.33;2.33;;;;;14.63;100.00;98726.25;4982792;28;45683;-78
2023/03/10 02:05:37;;;;;;;;;9.33;3.00;;;;;14.69;100.00;98719.88;4977020;28;45689;-79
2023/03/10 02:08:03;;;;;;;;;1.00;1.00;;;;;14.55;100.00;98706.53;4984558;28;45402;-79
2023/03/10 02:10:29;;;;;;;;;3.33;1.00;;;;;14.63;100.00;98701.63;4982020;28;47060;-80
2023/03/10 02:12:54;;;;;;;;;5.33;4.00;;;;;14.47;100.00;98688.53;4983998;28;45299;-79
2023/03/10 02:15:20;;;;;;;;;0.00;0.00;;;;;14.61;100.00;98698.28;4983348;28;45453;-79
2023/03/10 02:17:46;;;;;;;;;6.67;2.00;;;;;14.58;100.00;98674.16;4982715;28;45339;-79
2023/03/10 02:20:15;;;;;;;;;2.33;2.00;;;;;14.67;100.00;98685.66;4981997;28;46949;-77
2023/03/10 02:22:41;;;;;;;;;2.00;1.67;;;;;14.49;100.00;98672.75;4986396;28;45453;-79
2023/03/10 02:25:52;;;;;;;;;4.33;1.00;;;;;14.31;100.00;98668.06;4983387;28;45387;-78
2023/03/10 02:28:17;;;;;;;;;8.33;3.67;;;;;14.58;100.00;98665.97;5010571;28;45196;-79
2023/03/10 02:30:47;;;;;;;;;3.33;1.00;;;;;14.61;100.00;98676.41;4981657;28;45776;-79
2023/03/10 02:33:18;;;;;;;;;4.33;2.00;;;;;14.62;100.00;98669.06;5015096;28;45295;-79
2023/03/10 02:35:45;;;;;;;;;11.00;4.67;;;;;14.41;100.00;98667.56;4982983;28;45388;-79
2023/03/10 02:38:10;;;;;;;;;5.33;3.33;;;;;14.55;100.00;98665.56;4985499;28;45292;-79
2023/03/10 02:40:50;;;;;;;;;2.67;2.00;;;;;14.53;100.00;98676.72;4980601;28;45487;-80
2023/03/10 02:43:26;;;;;;;;;4.00;2.00;;;;;14.53;100.00;98660.34;4981904;28;46434;-78
2023/03/10 02:45:54;;;;;;;;;2.67;2.33;;;;;14.60;100.00;98661.13;4982903;28;45434;-79
2023/03/10 02:48:28;;;;;;;;;3.67;2.33;;;;;14.62;100.00;98669.91;5015182;28;45403;-78
2023/03/10 02:50:54;;;;;;;;;6.00;3.33;;;;;14.46;100.00;98665.03;4982797;28;45763;-79
2023/03/10 02:53:23;;;;;;;;;10.00;3.33;;;;;14.57;100.00;98661.56;4983507;28;45423;-81
2023/03/10 02:55:49;;;;;;;;;3.00;3.00;;;;;14.57;100.00;98645.16;4994487;28;45436;-79
2023/03/10 02:58:15;;;;;;;;;7.00;3.00;;;;;14.69;100.00;98650.69;4978397;28;45379;-79
2023/03/10 03:00:42;;;;;;;;;4.00;3.00;;;;;14.62;100.00;98652.66;4979026;28;46685;-79
2023/03/10 03:03:09;;;;;;;;;2.67;1.00;;;;;14.25;100.00;98636.16;4983220;28;45294;-78
2023/03/10 03:05:35;;;;;;;;;5.00;3.00;;;;;14.49;100.00;98648.16;4981889;28;45348;-78
2023/03/10 03:08:01;;;;;;;;;3.67;1.00;;;;;14.47;100.00;98644.81;4983585;28;45265;-79
2023/03/10 03:10:27;;;;;;;;;3.67;3.67;;;;;14.53;100.00;98652.16;4983277;28;45434;-79
2023/03/10 03:12:54;;;;;;;;;2.67;2.33;;;;;14.32;100.00;98638.81;4982086;28;45419;-79
2023/03/10 03:15:20;;;;;;;;;3.00;2.00;;;;;14.45;100.00;98627.84;4981586;28;45456;-79
2023/03/10 03:17:45;;;;;;;;;1.00;1.00;;;;;14.56;100.00;98637.19;4983078;28;45658;-79
2023/03/10 03:20:14;;;;;;;;;0.33;0.33;;;;;14.51;100.00;98640.59;4980010;28;46960;-79
2023/03/10 03:22:41;;;;;;;;;2.00;1.00;;;;;14.53;100.00;98637.63;4982587;28;45470;-80
2023/03/10 03:25:07;;;;;;;;;4.67;2.00;;;;;14.58;100.00;98637.78;4982713;28;45446;-79
2023/03/10 03:27:32;;;;;;;;;1.00;1.00;;;;;14.53;100.00;98627.56;4983432;28;45578;-77
2023/03/10 03:29:58;;;;;;;;;0.00;0.00;;;;;14.58;100.00;98630.44;4982363;28;46124;-80
2023/03/10 03:32:23;;;;;;;;;4.00;2.00;;;;;14.31;100.00;98618.06;4982996;28;45407;-79
2023/03/10 03:34:49;;;;;;;;;1.33;0.33;;;;;14.47;100.00;98639.34;4982427;28;45360;-80
2023/03/10 03:37:14;;;;;;;;;1.33;1.00;;;;;14.55;100.00;98641.81;4982981;28;45320;-80
2023/03/10 03:39:39;;;;;;;;;1.33;0.00;;;;;14.35;100.00;98632.94;4982348;28;46051;-79
2023/03/10 03:42:05;;;;;;;;;0.00;0.00;;;;;14.27;100.00;98647.69;4998209;28;45372;-80
2023/03/10 03:44:30;;;;;;;;;2.33;0.00;;;;;14.41;100.00;98640.25;4981294;28;45293;-79
2023/03/10 03:46:56;;;;;;;;;2.00;1.00;;;;;14.21;100.00;98645.03;5014810;28;45407;-78
2023/03/10 03:49:21;;;;;;;;;1.00;1.00;;;;;14.22;100.00;98650.28;4982254;28;45467;-78
2023/03/10 03:51:46;;;;;;;;;2.67;1.00;;;;;14.23;100.00;98660.16;5013856;28;45421;-80
2023/03/10 03:54:12;;;;;;;;;2.00;2.00;;;;;14.02;100.00;98661.38;4980201;28;45504;-79
2023/03/10 03:56:37;;;;;;;;;1.67;1.00;;;;;13.95;100.00;98657.81;4980283;28;45419;-79
2023/03/10 03:59:02;;;;;;;;;2.00;2.00;;;;;14.06;100.00;98655.44;4982656;28;45468;-79
2023/03/10 04:01:28;;;;;;;;;4.00;2.00;;;;;13.98;100.00;98662.84;4984360;28;45962;-80
2023/03/10 04:03:53;;;;;;;;;4.00;2.67;;;;;14.18;100.00;98670.03;4982599;28;45459;-79
2023/03/10 04:06:18;;;;;;;;;4.33;2.00;;;;;13.99;100.00;98634.50;4982435;28;45244;-80
2023/03/10 04:08:44;;;;;;;;;6.00;4.33;;;;;14.14;100.00;98649.72;4997518;28;45273;-79
2023/03/10 04:11:09;;;;;;;;;4.33;2.33;;;;;14.09;100.00;98660.47;5014639;28;45478;-79
2023/03/10 04:13:36;;;;;;;;;3.33;3.33;;;;;14.11;100.00;98641.94;4982949;28;45379;-80
2023/03/10 04:16:01;;;;;;;;;2.67;0.67;;;;;14.19;100.00;98638.94;4979635;28;45466;-78
2023/03/10 04:18:27;;;;;;;;;9.00;3.00;;;;;14.18;100.00;98643.56;4984960;28;47229;-80
2023/03/10 04:20:52;;;;;;;;;5.33;2.33;;;;;14.13;100.00;98648.88;4985386;28;45474;-80
2023/03/10 04:23:18;;;;;;;;;9.33;4.00;;;;;13.94;100.00;98658.06;4985657;28;45438;-79
2023/03/10 04:25:43;;;;;;;;;1.33;1.00;;;;;14.14;100.00;98639.63;4989483;28;45319;-79
2023/03/10 04:28:10;;;;;;;;;4.33;2.33;;;;;13.97;100.00;98650.25;4984187;28;46689;-78
2023/03/10 04:30:35;;;;;;;;;5.67;2.00;;;;;14.06;100.00;98639.91;4985216;28;45220;-78
2023/03/10 04:33:01;;;;;;;;;6.67;2.00;;;;;14.26;100.00;98648.75;4985342;28;45311;-80
2023/03/10 04:35:27;;;;;;;;;4.33;3.00;;;;;14.27;100.00;98646.88;4985148;28;45170;-80
2023/03/10 04:37:53;;;;;;;;;3.67;2.00;;;;;14.18;100.00;98631.81;4985263;28;45591;-80
2023/03/10 04:40:18;;;;;;;;;2.00;2.00;;;;;14.16;100.00;98623.03;4983417;28;45255;-79
2023/03/10 04:42:44;;;;;;;;;4.00;2.33;;;;;14.25;100.00;98635.31;4985681;28;45407;-80
2023/03/10 04:45:10;;;;;;;;;6.00;3.33;;;;;14.22;100.00;98643.97;4983530;28;45550;-80
2023/03/10 04:47:35;;;;;;;;;5.00;1.00;;;;;14.15;100.00;98640.47;4983534;28;48541;-80
2023/03/10 04:50:01;;;;;;;;;4.00;1.67;;;;;14.00;100.00;98644.34;4984050;28;45391;-79
2023/03/10 04:52:26;;;;;;;;;4.67;3.00;;;;;14.13;100.00;98642.56;4987166;28;45434;-79
2023/03/10 04:54:52;;;;;;;;;3.00;1.67;;;;;14.09;100.00;98642.19;4995065;28;45461;-78
2023/03/10 04:57:18;;;;;;;;;3.67;1.67;;;;;14.10;100.00;98649.31;4984478;28;46034;-79
2023/03/10 04:59:43;;;;;;;;;2.00;2.00;;;;;14.12;100.00;98660.00;4984011;28;45328;-80
2023/03/10 05:02:08;;;;;;;;;3.33;1.00;;;;;13.95;100.00;98668.72;4999257;28;45442;-80
2023/03/10 05:04:34;;;;;;;;;5.33;5.00;;;;;13.97;100.00;98673.97;4983673;28;45368;-78
2023/03/10 05:07:00;;;;;;;;;2.00;1.00;;;;;13.94;100.00;98683.47;4986424;28;47258;-78
2023/03/10 05:09:26;;;;;;;;;2.67;1.33;;;;;13.76;100.00;98669.72;4984701;28;45543;-78
2023/03/10 05:11:52;;;;;;;;;1.00;1.00;;;;;13.67;100.00;98665.56;4985839;28;45261;-77
2023/03/10 05:14:17;;;;;;;;;0.00;0.00;;;;;13.59;100.00;98668.53;4986533;28;45245;-78
2023/03/10 05:16:43;;;;;;;;;3.00;1.00;;;;;13.71;100.00;98664.09;4983301;28;46646;-77
2023/03/10 05:19:09;;;;;;;;;2.67;1.00;;;;;13.71;100.00;98674.16;4985559;28;45229;-77
2023/03/10 05:21:35;;;;;;;;;2.00;2.00;;;;;13.80;100.00;98660.03;4985876;28;45413;-78
2023/03/10 05:24:00;;;;;;;;;1.00;1.00;;;;;13.91;100.00;98672.97;4986610;28;45423;-78
2023/03/10 05:26:26;;;;;;;;;1.00;1.00;;;;;13.58;100.00;98669.63;4981815;28;46391;-78
2023/03/10 05:28:52;;;;;;;;;2.33;1.67;;;;;13.66;100.00;98685.75;4984752;28;45333;-78
2023/03/10 05:31:24;;;;;;;;;3.33;0.00;;;;;13.69;100.00;98685.28;4983042;28;46028;-78
2023/03/10 05:33:50;;;;;;;;;0.67;0.67;;;;;13.57;100.00;98692.50;4992524;28;45378;-79
2023/03/10 05:36:15;;;;;;;;;1.67;1.00;;;;;13.67;100.00;98686.56;4986360;28;45535;-79
2023/03/10 05:38:40;;;;;;;;;2.00;1.00;;;;;13.50;100.00;98691.69;4994295;28;45356;-79
2023/03/10 05:41:09;;;;;;;;;1.00;1.00;;;;;13.62;100.00;98674.41;4991448;28;45519;-78
2023/03/10 05:43:35;;;;;;;;;2.33;0.67;;;;;13.78;100.00;98678.53;4985388;28;45372;-77
2023/03/10 05:46:01;;;;;;;;;0.00;0.00;;;;;13.65;100.00;98673.16;4981944;28;46367;-78
2023/03/10 05:48:27;;;;;;;;;3.00;0.00;;;;;13.62;100.00;98685.31;4985621;28;46337;-79
2023/03/10 05:51:07;;;;;;;;;0.00;0.00;;;;;13.36;100.00;98701.00;4984345;28;45434;-77
2023/03/10 05:53:34;;;;;;;;;0.00;0.00;;;;;13.41;100.00;98693.00;4986054;28;45317;-79
2023/03/10 05:56:03;;;;;;;;;0.00;0.00;;;;;13.44;100.00;98681.66;4985062;28;45449;-80
2023/03/10 05:58:28;;;;;;;;;1.00;1.00;;;;;13.11;100.00;98676.28;4984542;28;45284;-78
2023/03/10 06:00:53;;;;;;;;;0.33;0.33;;;;;13.41;100.00;98691.09;5014884;28;45538;-78
2023/03/10 06:03:19;;;;;;;;;0.00;0.00;;;;;13.47;100.00;98692.13;4988360;28;45635;-78
2023/03/10 06:05:44;;;;;;;;;2.00;1.67;;;;;13.43;100.00;98685.44;4990559;28;46071;-79
2023/03/10 06:08:10;;;;;;;;;0.33;0.33;;;;;13.24;100.00;98698.91;4983988;28;45418;-79
2023/03/10 06:10:35;;;;;;;;;1.33;0.67;;;;;13.03;100.00;98692.88;4982943;28;45458;-79
2023/03/10 06:13:01;;;;;;;;;1.33;1.33;;;;;13.30;100.00;98718.19;4989689;28;45539;-80
2023/03/10 06:15:26;;;;;;;;;1.00;0.00;;;;;13.35;100.00;98716.53;4983797;28;45272;-80
2023/03/10 06:17:51;;;;;;;;;0.00;0.00;;;;;13.40;100.00;98691.31;4983637;28;45447;-79
2023/03/10 06:20:17;;;;;;;;;1.00;1.00;;;;;13.42;100.00;98702.84;4982878;28;44799;-77
2023/03/10 06:22:42;;;;;;;;;2.00;0.00;;;;;13.32;100.00;98716.09;4983388;28;45376;-81
2023/03/10 06:25:09;;;;;;;;;1.00;0.00;;;;;13.29;100.00;98722.00;4987232;28;45927;-80
2023/03/10 06:27:34;;;;;;;;;0.00;0.00;;;;;13.20;100.00;98733.13;4982696;28;45748;-79
2023/03/10 06:29:59;;;;;;;;;0.00;0.00;;;;;12.99;100.00;98714.28;4983499;28;45693;-79
2023/03/10 06:32:25;;;;;;;;;0.00;0.00;;;;;13.18;100.00;98737.13;4983250;28;45257;-79
2023/03/10 06:34:50;;;;;;;;;0.00;0.00;;;;;13.09;100.00;98741.09;4996644;28;46733;-78
2023/03/10 06:37:16;;;;;;;;;1.00;1.00;;;;;12.93;100.00;98749.75;4983156;28;45474;-79
2023/03/10 06:39:41;;;;;;;;;0.00;0.00;;;;;13.05;100.00;98737.13;4979356;28;45510;-77
2023/03/10 06:42:07;;;;;;;;;0.00;0.00;;;;;13.04;100.00;98741.75;4984035;28;45252;-79
2023/03/10 06:44:33;;;;;;;;;0.00;0.00;;;;;13.05;100.00;98757.06;4982732;28;45312;-78
2023/03/10 06:46:58;;;;;;;;;2.00;2.00;;;;;13.04;100.00;98762.72;4983228;28;45311;-79
2023/03/10 06:49:28;;;;;;;;;1.00;0.00;;;;;13.02;100.00;98741.09;4981718;28;45492;-78
2023/03/10 06:51:53;;;;;;;;;0.33;0.33;;;;;12.81;100.00;98742.19;5014516;28;45502;-78
2023/03/10 06:54:19;;;;;;;;;2.00;1.00;;;;;13.09;100.00;98760.19;4979475;28;46613;-78
2023/03/10 06:56:44;;;;;;;;;0.00;0.00;;;;;13.16;100.00;98769.22;4980836;28;45398;-76
2023/03/10 06:59:09;;;;;;;;;0.00;0.00;;;;;13.15;100.00;98759.38;4982862;28;45378;-78
2023/03/10 07:01:34;;;;;;;;;0.00;0.00;;;;;13.22;100.00;98773.84;4982271;28;45378;-79
2023/03/10 07:04:01;;;;;;;;;1.00;0.00;;;;;13.25;100.00;98790.59;4998406;28;46937;-75
2023/03/10 07:06:28;;;;;;;;;0.67;0.00;;;;;13.13;100.00;98775.09;4994100;28;45393;-77
2023/03/10 07:08:54;;;;;;;;;1.00;0.00;;;;;13.29;100.00;98793.75;4981724;28;45529;-78
2023/03/10 07:11:20;;;;;;;;;0.00;0.00;;;;;13.39;100.00;98806.91;4980054;28;45525;-77
2023/03/10 07:13:46;;;;;;;;;3.00;1.00;;;;;13.20;100.00;98790.41;4981604;28;46477;-79
2023/03/10 07:16:12;;;;;;;;;1.00;1.00;;;;;13.24;100.00;98813.47;4981627;28;45525;-78
2023/03/10 07:18:37;;;;;;;;;1.00;0.00;;;;;13.16;100.00;98816.41;4981171;28;45405;-77
2023/03/10 07:21:11;;;;;;;;;0.00;0.00;;;;;13.34;100.00;98823.09;4981809;28;45431;-78
2023/03/10 07:23:37;;;;;;;;;0.00;0.00;;;;;13.27;100.00;98850.38;4981561;28;45578;-78
2023/03/10 07:26:06;;;;;;;;;1.00;1.00;;;;;13.25;100.00;98853.31;4974599;28;45507;-75
2023/03/10 07:28:33;;;;;;;;;0.67;0.67;;;;;13.32;100.00;98853.31;4980995;28;45375;-78
2023/03/10 07:31:05;;;;;;;;;0.00;0.00;;;;;12.93;100.00;98836.97;4981023;28;45608;-79
2023/03/10 07:33:31;;;;;;;;;1.00;1.00;;;;;13.01;100.00;98843.03;4992299;28;45555;-78
2023/03/10 07:35:57;;;;;;;;;0.00;0.00;;;;;12.98;100.00;98868.00;4972588;28;45177;-75
2023/03/10 07:38:22;;;;;;;;;0.00;0.00;;;;;12.99;100.00;98869.66;4981130;28;45319;-76
2023/03/10 07:40:48;;;;;;;;;0.00;0.00;;;;;12.99;100.00;98874.28;4977369;28;45346;-76
2023/03/10 07:43:13;;;;;;;;;0.00;0.00;;;;;13.17;100.00;98882.69;4981938;28;46515;-78
2023/03/10 07:45:38;;;;;;;;;0.33;0.33;;;;;12.98;100.00;98859.81;4979776;28;47645;-78
2023/03/10 07:48:04;;;;;;;;;0.00;0.00;;;;;13.41;100.00;98911.22;4984379;28;45498;-77
2023/03/10 07:50:30;;;;;;;;;3.00;1.33;;;;;13.42;100.00;98919.19;4984993;28;45274;-76
2023/03/10 07:52:55;;;;;;;;;0.00;0.00;;;;;13.55;100.00;98929.25;4984843;28;45487;-77
2023/03/10 07:55:21;;;;;;;;;2.00;0.00;;;;;13.22;100.00;98946.44;5015333;28;45489;-79
2023/03/10 07:57:46;;;;;;;;;0.00;0.00;;;;;13.19;100.00;98946.03;5015698;28;45254;-78
2023/03/10 08:00:12;;;;;;;;;0.00;0.00;;;;;12.95;100.00;98931.09;5016997;28;45545;-80
2023/03/10 08:02:39;;;;;;;;;0.00;0.00;;;;;13.25;100.00;98946.03;4999781;28;46805;-79
2023/03/10 08:05:05;;;;;;;;;0.33;0.33;;;;;13.21;100.00;98954.88;4984797;28;45515;-79
2023/03/10 08:07:30;;;;;;;;;1.00;0.00;;;;;13.35;100.00;98950.25;4999999;28;45247;-79
2023/03/10 08:09:56;;;;;;;;;0.00;0.00;;;;;13.29;100.00;98984.66;4985727;28;45326;-78
2023/03/10 08:12:21;;;;;;;;;0.33;0.00;;;;;13.32;100.00;98961.56;5000060;28;48062;-78
2023/03/10 08:14:47;;;;;;;;;0.67;0.67;;;;;13.14;100.00;98981.28;4989135;28;45305;-77
2023/03/10 08:17:13;;;;;;;;;2.00;0.00;;;;;13.17;100.00;98995.31;4984762;28;45312;-79
2023/03/10 08:19:38;;;;;;;;;1.00;1.00;;;;;13.12;100.00;99029.69;4984331;28;45185;-81
2023/03/10 08:22:04;;;;;;;;;0.00;0.00;;;;;12.85;100.00;99017.88;5017838;28;47914;-80
2023/03/10 08:24:29;;;;;;;;;1.00;1.00;;;;;13.07;100.00;99038.50;5016447;28;45842;-79
2023/03/10 08:26:55;;;;;;;;;0.67;0.67;;;;;13.43;100.00;99042.78;5016173;28;45427;-78
2023/03/10 08:29:20;;;;;;;;;4.33;3.33;;;;;13.02;100.00;99051.06;5016833;28;47341;-79
2023/03/10 08:31:46;;;;;;;;;0.33;0.00;;;;;12.95;100.00;99070.13;4984486;28;45606;-81
2023/03/10 08:34:13;;;;;;;;;1.33;0.00;;;;;13.09;100.00;99081.91;5021331;28;45534;-80
2023/03/10 08:36:38;;;;;;;;;1.00;1.00;;;;;13.03;100.00;99077.28;4999499;28;45476;-80
2023/03/10 08:39:04;;;;;;;;;1.00;1.00;;;;;13.02;100.00;99091.94;4988334;28;45372;-78
2023/03/10 08:41:41;;;;;;;;;0.00;0.00;;;;;12.94;100.00;99084.78;4984533;28;45317;-80
2023/03/10 08:44:07;;;;;;;;;0.00;0.00;;;;;12.96;100.00;99099.06;4987990;28;45229;-79
2023/03/10 08:46:33;;;;;;;;;2.00;1.00;;;;;13.54;100.00;99115.81;4984766;28;45405;-80
2023/03/10 08:48:59;;;;;;;;;1.00;1.00;;;;;13.55;100.00;99118.34;4983906;28;45440;-81
2023/03/10 08:51:26;;;;;;;;;2.00;0.67;;;;;12.94;100.00;99131.13;4985121;28;46769;-80
2023/03/10 08:53:52;;;;;;;;;1.00;1.00;;;;;13.13;100.00;99122.22;4990586;28;45308;-79
2023/03/10 08:56:20;;;;;;;;;1.67;1.67;;;;;13.33;100.00;99129.63;5016224;28;46089;-80
2023/03/10 08:58:45;;;;;;;;;1.00;1.00;;;;;12.92;100.00;99149.59;4981544;28;45392;-79
2023/03/10 09:01:13;;;;;;;;;1.33;0.00;;;;;12.99;100.00;99141.44;5015630;28;48130;-80
2023/03/10 09:03:40;;;;;;;;;1.00;1.00;;;;;12.86;100.00;99143.03;4981523;28;45300;-80
2023/03/10 09:06:06;;;;;;;;;3.00;3.00;;;;;12.77;100.00;99159.78;4983840;28;45447;-79
2023/03/10 09:08:32;;;;;;;;;1.00;0.00;;;;;13.34;100.00;99174.97;4983439;28;45348;-81
2023/03/10 09:10:57;;;;;;;;;2.00;0.00;;;;;12.83;100.00;99172.59;4985287;28;45590;-80
2023/03/10 09:13:23;;;;;;;;;0.67;0.67;;;;;12.31;100.00;99171.19;4982440;28;45341;-79
2023/03/10 09:15:49;;;;;;;;;3.00;1.67;;;;;12.65;100.00;99180.44;4984316;28;45412;-79
2023/03/10 09:18:15;;;;;;;;;0.33;0.33;;;;;12.64;100.00;99209.56;4984288;28;45331;-80
2023/03/10 09:20:42;;;;;;;;;4.33;4.00;;;;;12.64;100.00;99223.19;4983739;28;45422;-79
2023/03/10 09:23:08;;;;;;;;;2.00;0.00;;;;;12.40;100.00;99224.50;5015206;28;45323;-79
2023/03/10 09:25:34;;;;;;;;;1.00;0.00;;;;;12.34;100.00;99221.72;4984318;28;45329;-78
2023/03/10 09:27:59;;;;;;;;;1.00;1.00;;;;;12.37;100.00;99263.00;4980448;28;45566;-79
2023/03/10 09:30:25;;;;;;;;;2.00;0.67;;;;;12.43;100.00;99267.66;4978348;28;48366;-79
2023/03/10 09:32:51;;;;;;;;;2.00;2.00;;;;;12.62;100.00;99274.34;4984208;28;45533;-79
2023/03/10 09:35:17;;;;;;;;;1.67;1.67;;;;;12.39;100.00;99263.66;4981117;28;45442;-78
2023/03/10 09:37:42;;;;;;;;;3.00;1.00;;;;;12.45;100.00;99292.00;4985259;28;45496;-78
2023/03/10 09:40:16;;;;;;;;;1.00;1.00;;;;;12.54;100.00;99279.06;4984264;28;45459;-78
2023/03/10 09:42:57;;;;;;;;;1.33;1.33;;;;;12.51;100.00;99306.69;4983209;28;45450;-80
2023/03/10 09:45:31;;;;;;;;;1.67;0.33;;;;;12.57;100.00;99311.34;4980964;28;45460;-82
2023/03/10 09:48:15;;;;;;;;;0.00;0.00;;;;;12.14;100.00;99348.63;5016075;28;45287;-79
2023/03/10 09:50:49;;;;;;;;;0.33;0.33;;;;;11.66;100.00;99312.88;4975589;28;47085;-79
2023/03/10 09:53:36;;;;;;;;;3.00;1.67;;;;;11.93;100.00;99342.13;4984622;28;45507;-79
2023/03/10 09:56:18;;;;;;;;;2.33;1.33;;;;;12.04;100.00;99338.09;4996532;28;45331;-79
2023/03/10 09:58:57;;;;;;;;;4.67;3.33;;;;;12.02;100.00;99337.44;4982304;28;45376;-79
2023/03/10 10:01:26;;;;;;;;;2.33;1.00;;;;;11.80;100.00;99363.75;5015287;28;47314;-80
2023/03/10 10:03:56;;;;;;;;;3.00;3.00;;;;;12.19;100.00;99355.22;4967877;28;45467;-79
2023/03/10 10:06:30;;;;;;;;;4.33;2.33;;;;;12.24;100.00;99382.72;4984098;28;45903;-81
2023/03/10 10:09:06;;;;;;;;;1.00;1.00;;;;;11.74;100.00;99390.84;4986898;28;45412;-80
2023/03/10 10:11:35;;;;;;;;;4.00;2.00;;;;;11.65;100.00;99399.09;5017492;28;47237;-80
2023/03/10 10:14:21;;;;;;;;;2.67;1.00;;;;;11.61;100.00;99416.00;4986078;28;45342;-79
2023/03/10 10:16:58;;;;;;;;;2.00;0.33;;;;;11.57;100.00;99431.84;4992217;28;45664;-80
2023/03/10 10:19:26;;;;;;;;;1.00;1.00;;;;;11.70;100.00;99439.34;4982648;28;45316;-80
2023/03/10 10:22:02;;;;;;;;;1.00;1.00;;;;;11.76;100.00;99454.97;4980975;28;47131;-81
2023/03/10 10:24:27;;;;;;;;;1.00;1.00;;;;;11.79;100.00;99454.56;5011961;28;45426;-79
2023/03/10 10:26:52;;;;;;;;;4.67;2.00;;;;;11.93;100.00;99477.38;4983639;28;45685;-81
2023/03/10 10:29:35;;;;;;;;;1.00;1.00;;;;;11.73;100.00;99462.63;4985886;28;45463;-80
2023/03/10 10:32:11;;;;;;;;;2.33;2.33;;;;;12.12;100.00;99465.09;4983898;28;45403;-80
2023/03/10 10:34:41;;;;;;;;;4.00;1.67;;;;;11.74;100.00;99477.91;4983206;28;45343;-78
2023/03/10 10:37:30;;;;;;;;;2.67;2.67;;;;;11.79;100.00;99475.50;4985636;28;45479;-79
2023/03/10 10:39:58;;;;;;;;;3.00;1.67;;;;;11.78;100.00;99471.09;4984596;28;46079;-78
2023/03/10 10:42:28;;;;;;;;;2.00;1.33;;;;;11.94;100.00;99490.81;5022209;28;47772;-80
2023/03/10 10:44:57;;;;;;;;;3.00;1.00;;;;;11.84;100.00;99448.56;4983342;28;45487;-80
2023/03/10 10:47:46;;;;;;;;;2.00;2.00;;;;;12.25;100.00;99468.81;5000429;28;45365;-78
2023/03/10 10:50:25;;;;;;;;;3.33;3.33;;;;;12.42;100.00;99483.88;5009370;28;44933;-80
2023/03/10 10:53:14;;;;;;;;;1.33;1.33;;;;;12.67;100.00;99510.81;4988880;28;46186;-79
2023/03/10 10:55:44;;;;;;;;;3.33;3.33;;;;;12.39;100.00;99497.91;4994526;28;45442;-79
2023/03/10 10:58:29;;;;;;;;;2.67;2.67;;;;;12.46;100.00;99503.44;4986928;28;45371;-80
2023/03/10 11:00:58;;;;;;;;;5.00;2.00;;;;;12.39;100.00;99527.88;4976570;28;45423;-80
2023/03/10 11:03:25;;;;;;;;;6.33;4.67;;;;;12.53;100.00;99555.28;5010066;28;46594;-79
2023/03/10 11:05:51;;;;;;;;;4.00;2.33;;;;;12.36;100.00;99539.13;4999409;28;45472;-80
2023/03/10 11:08:25;;;;;;;;;6.33;2.67;;;;;12.02;100.00;99568.81;4999831;28;45434;-81
2023/03/10 11:10:59;;;;;;;;;2.67;2.67;;;;;12.41;100.00;99547.59;4984200;28;45614;-79
2023/03/10 11:13:38;;;;;;;;;1.67;1.67;;;;;12.37;100.00;99573.50;4994176;28;45545;-80
2023/03/10 11:16:14;;;;;;;;;5.67;2.67;;;;;12.71;100.00;99569.34;4982378;28;45549;-81
2023/03/10 11:18:51;;;;;;;;;1.67;1.33;;;;;12.45;100.00;99557.06;4975678;28;45468;-80
2023/03/10 11:21:25;;;;;;;;;4.67;3.00;;;;;12.38;100.00;99598.88;5023136;28;45236;-80
2023/03/10 11:24:12;;;;;;;;;6.67;2.00;;;;;12.79;100.00;99572.78;4985634;28;46610;-79
2023/03/10 11:26:58;;;;;;;;;2.67;2.00;;;;;12.74;100.00;99596.22;4984896;28;45301;-81